createdAt,value
2019-04-07T00:00:25.792Z,100875.39
2019-04-07T00:02:57.983Z,100876.36
2019-04-07T00:05:29.768Z,100874.27
2019-04-07T00:08:01.817Z,100873.27
2019-04-07T00:10:34.307Z,100876.70
2019-04-07T00:13:05.331Z,100868.63
2019-04-07T00:15:36.893Z,100874.83
2019-04-07T00:18:08.836Z,100874.03
2019-04-07T00:20:40.812Z,100868.23
2019-04-07T00:23:13.003Z,100867.16
2019-04-07T00:25:45.095Z,100861.25
2019-04-07T00:28:17.219Z,100872.12
2019-04-07T00:30:48.908Z,100866.97
2019-04-07T00:33:20.845Z,100866.53
2019-04-07T00:35:52.643Z,100871.43
2019-04-07T00:38:24.910Z,100866.48
2019-04-07T00:40:56.746Z,100860.22
2019-04-07T00:43:29.215Z,100855.95
2019-04-07T00:46:01.333Z,100859.82
2019-04-07T00:48:33.348Z,100853.98
2019-04-07T00:51:05.168Z,100858.86
2019-04-07T00:53:37.533Z,100856.32
2019-04-07T00:56:09.432Z,100859.95
2019-04-07T00:58:42.289Z,100860.01
2019-04-07T01:01:16.384Z,100856.64
2019-04-07T01:03:49.428Z,100855.17
2019-04-07T01:06:21.096Z,100851.38
2019-04-07T01:08:53.663Z,100851.44
2019-04-07T01:11:24.793Z,100849.78
2019-04-07T01:13:56.228Z,100849.34
2019-04-07T01:16:28.504Z,100844.77
2019-04-07T01:19:00.377Z,100843.09
2019-04-07T01:21:33.035Z,100846.59
2019-04-07T01:24:05.610Z,100842.72
2019-04-07T01:26:37.453Z,100849.70
2019-04-07T01:29:09.276Z,100838.80
2019-04-07T01:31:41.591Z,100844.55
2019-04-07T01:34:13.660Z,100841.64
2019-04-07T01:36:46.372Z,100840.60
2019-04-07T01:39:18.360Z,100841.95
2019-04-07T01:41:51.856Z,100843.02
2019-04-07T01:44:25.573Z,100838.82
2019-04-07T01:47:02.378Z,100840.03
2019-04-07T01:49:41.607Z,100841.54
2019-04-07T01:52:29.995Z,100841.33
2019-04-07T01:55:03.767Z,100838.88
2019-04-07T01:57:39.944Z,100842.25
2019-04-07T02:00:16.236Z,100840.91
2019-04-07T02:02:52.616Z,100830.37
2019-04-07T02:05:26.985Z,100840.45
2019-04-07T02:08:09.420Z,100839.12
2019-04-07T02:10:46.054Z,100843.25
2019-04-07T02:13:22.831Z,100849.78
2019-04-07T02:15:59.236Z,100850.36
2019-04-07T02:18:50.801Z,100848.95
2019-04-07T02:21:27.406Z,100850.07
2019-04-07T02:24:04.844Z,100846.54
2019-04-07T02:26:44.421Z,100845.12
2019-04-07T02:29:35.878Z,100849.83
2019-04-07T02:32:18.113Z,100846.58
2019-04-07T02:35:00.067Z,100844.66
2019-04-07T02:37:36.702Z,100849.32
2019-04-07T02:40:10.490Z,100845.45
2019-04-07T02:42:46.231Z,100851.03
2019-04-07T02:45:25.145Z,100854.65
2019-04-07T02:48:05.124Z,100846.32
2019-04-07T02:50:44.123Z,100849.61
2019-04-07T02:53:21.688Z,100843.82
2019-04-07T02:56:07.982Z,100845.62
2019-04-07T02:58:47.783Z,100854.84
2019-04-07T03:01:24.096Z,100852.05
2019-04-07T03:04:03.591Z,100847.59
2019-04-07T03:06:44.085Z,100852.67
2019-04-07T03:09:11.836Z,100845.71
2019-04-07T03:11:47.898Z,100844.72
2019-04-07T03:14:21.655Z,100850.42
2019-04-07T03:16:55.743Z,100848.59
2019-04-07T03:19:30.333Z,100852.45
2019-04-07T03:22:03.368Z,100848.31
2019-04-07T03:24:53.190Z,100848.19
2019-04-07T03:27:30.247Z,100848.52
2019-04-07T03:30:21.845Z,100848.12
2019-04-07T03:33:06.026Z,100841.91
2019-04-07T03:35:40.999Z,100848.50
2019-04-07T03:38:27.295Z,100851.30
2019-04-07T03:41:03.680Z,100850.73
2019-04-07T03:43:46.400Z,100849.55
2019-04-07T03:46:20.325Z,100851.59
2019-04-07T03:49:05.930Z,100856.34
2019-04-07T03:51:51.555Z,100839.41
2019-04-07T03:54:37.822Z,100850.81
2019-04-07T03:57:11.361Z,100851.02
2019-04-07T04:00:02.078Z,100848.54
2019-04-07T04:02:44.530Z,100848.98
2019-04-07T04:05:34.082Z,100856.34
2019-04-07T04:08:07.665Z,100866.10
2019-04-07T04:10:43.585Z,100856.98
2019-04-07T04:13:24.304Z,100857.66
2019-04-07T04:16:01.066Z,100860.31
2019-04-07T04:18:32.742Z,100865.50
2019-04-07T04:21:07.029Z,100862.50
2019-04-07T04:24:06.884Z,100862.12
2019-04-07T04:26:46.236Z,100858.75
2019-04-07T04:29:18.948Z,100865.34
2019-04-07T04:31:51.042Z,100865.97
2019-04-07T04:34:23.667Z,100872.67
2019-04-07T04:36:56.299Z,100871.34
2019-04-07T04:39:29.338Z,100880.75
2019-04-07T04:42:02.087Z,100873.73
2019-04-07T04:44:33.976Z,100875.75
2019-04-07T04:47:06.064Z,100875.70
2019-04-07T04:49:38.431Z,100874.37
2019-04-07T04:52:09.249Z,100875.72
2019-04-07T04:54:40.976Z,100873.39
2019-04-07T04:57:13.200Z,100876.56
2019-04-07T04:59:45.880Z,100876.42
2019-04-07T05:02:17.669Z,100872.20
2019-04-07T05:04:49.843Z,100879.38
2019-04-07T05:07:22.202Z,100877.50
2019-04-07T05:09:56.639Z,100877.77
2019-04-07T05:12:28.662Z,100869.60
2019-04-07T05:15:00.660Z,100872.22
2019-04-07T05:17:32.565Z,100872.22
2019-04-07T05:20:06.062Z,100874.66
2019-04-07T05:22:38.053Z,100873.88
2019-04-07T05:25:10.463Z,100874.28
2019-04-07T05:27:43.226Z,100885.81
2019-04-07T05:30:15.651Z,100883.55
2019-04-07T05:32:47.847Z,100881.59
2019-04-07T05:35:19.606Z,100882.22
2019-04-07T05:38:01.228Z,100881.05
2019-04-07T05:40:25.455Z,100881.82
2019-04-07T05:42:57.517Z,100880.61
2019-04-07T05:45:29.229Z,100878.44
2019-04-07T05:48:01.153Z,100868.72
2019-04-07T05:50:33.461Z,100877.20
2019-04-07T05:53:09.500Z,100872.34
2019-04-07T05:55:39.303Z,100873.92
2019-04-07T05:58:10.944Z,100871.19
2019-04-07T06:00:45.897Z,100867.84
2019-04-07T06:03:17.670Z,100867.34
2019-04-07T06:05:51.124Z,100866.92
2019-04-07T06:08:32.155Z,100870.17
2019-04-07T06:11:02.048Z,100865.42
2019-04-07T06:13:32.828Z,100860.61
2019-04-07T06:16:05.347Z,100867.23
2019-04-07T06:18:36.878Z,100862.06
2019-04-07T06:21:09.318Z,100858.34
2019-04-07T06:23:40.787Z,100851.84
2019-04-07T06:26:13.066Z,100854.80
2019-04-07T06:28:48.473Z,100859.92
2019-04-07T06:31:18.387Z,100861.95
2019-04-07T06:33:51.289Z,100861.95
2019-04-07T06:36:26.868Z,100856.87
2019-04-07T06:38:59.366Z,100858.28
2019-04-07T06:41:33.060Z,100861.91
2019-04-07T06:44:11.971Z,100859.72
2019-04-07T06:46:49.180Z,100863.19
2019-04-07T06:49:38.086Z,100863.36
2019-04-07T06:52:14.710Z,100869.17
2019-04-07T06:55:00.197Z,100871.17
2019-04-07T06:57:49.980Z,100867.90
2019-04-07T07:00:26.255Z,100879.66
2019-04-07T07:03:08.467Z,100868.97
2019-04-07T07:05:46.161Z,100829.19
2019-04-07T07:08:21.908Z,100871.02
2019-04-07T07:10:57.550Z,100874.02
2019-04-07T07:13:34.656Z,100862.80
2019-04-07T07:16:10.121Z,100858.95
2019-04-07T07:18:58.164Z,100851.49
2019-04-07T07:21:49.020Z,100866.70
2019-04-07T07:24:25.034Z,100850.13
2019-04-07T07:26:57.054Z,100845.16
2019-04-07T07:29:27.872Z,100847.36
2019-04-07T07:32:03.433Z,100858.70
2019-04-07T07:34:33.922Z,100849.80
2019-04-07T07:37:06.080Z,100858.35
2019-04-07T07:39:41.936Z,100862.16
2019-04-07T07:42:12.151Z,100874.92
2019-04-07T07:44:44.357Z,100858.38
2019-04-07T07:47:19.736Z,100850.96
2019-04-07T07:49:49.764Z,100873.06
2019-04-07T07:52:21.993Z,100865.72
2019-04-07T07:54:55.121Z,100850.03
2019-04-07T07:57:27.291Z,100837.33
2019-04-07T08:00:00.279Z,100852.16
2019-04-07T08:02:32.148Z,100845.73
2019-04-07T08:05:04.242Z,100844.24
2019-04-07T08:07:35.991Z,100846.20
2019-04-07T08:10:08.564Z,100846.20
2019-04-07T08:12:42.171Z,100837.56
2019-04-07T08:15:14.180Z,100841.20
2019-04-07T08:17:46.347Z,100841.20
2019-04-07T08:20:18.532Z,100838.97
2019-04-07T08:22:50.498Z,100838.97
2019-04-07T08:25:23.695Z,100824.64
2019-04-07T08:27:56.493Z,100831.31
2019-04-07T08:30:28.453Z,100831.83
2019-04-07T08:33:01.297Z,100824.81
2019-04-07T08:35:37.772Z,100826.77
2019-04-07T08:38:07.107Z,100819.91
2019-04-07T08:40:39.155Z,100827.64
2019-04-07T08:43:11.486Z,100828.36
2019-04-07T08:45:43.205Z,100797.98
2019-04-07T08:48:18.239Z,100819.12
2019-04-07T08:50:48.627Z,100812.78
2019-04-07T08:53:20.441Z,100809.67
2019-04-07T08:55:54.742Z,100798.22
2019-04-07T08:58:29.760Z,100810.12
2019-04-07T09:00:59.582Z,100787.65
2019-04-07T09:03:31.481Z,100798.61
2019-04-07T09:06:04.775Z,100804.59
2019-04-07T09:08:39.007Z,100792.28
2019-04-07T09:11:13.143Z,100795.77
2019-04-07T09:13:46.561Z,100788.39
2019-04-07T09:16:32.138Z,100788.99
2019-04-07T09:19:14.955Z,100786.25
2019-04-07T09:21:50.689Z,100773.55
2019-04-07T09:24:33.427Z,100801.36
2019-04-07T09:27:17.167Z,100770.52
2019-04-07T09:29:47.825Z,100779.78
2019-04-07T09:32:24.336Z,100784.86
2019-04-07T09:35:13.502Z,100755.87
2019-04-07T09:37:47.087Z,100758.45
2019-04-07T09:40:37.201Z,100759.03
2019-04-07T09:43:19.950Z,100753.81
2019-04-07T09:46:02.847Z,100750.86
2019-04-07T09:48:40.554Z,100764.68
2019-04-07T09:51:29.834Z,100760.17
2019-04-07T09:54:22.536Z,100770.08
2019-04-07T09:57:10.819Z,100748.91
2019-04-07T09:59:50.889Z,100748.60
2019-04-07T10:02:31.811Z,100752.58
2019-04-07T10:05:11.285Z,100747.40
2019-04-07T10:07:54.347Z,100744.03
2019-04-07T10:10:33.308Z,100743.25
2019-04-07T10:13:24.600Z,100730.53
2019-04-07T10:16:11.011Z,100716.59
2019-04-07T10:18:48.119Z,100734.94
2019-04-07T10:21:24.215Z,100720.57
2019-04-07T10:24:03.246Z,100724.61
2019-04-07T10:26:43.002Z,100727.02
2019-04-07T10:29:25.425Z,100721.66
2019-04-07T10:32:04.603Z,100720.73
2019-04-07T10:34:54.471Z,100725.75
2019-04-07T10:37:44.558Z,100714.31
2019-04-07T10:40:27.529Z,100701.80
2019-04-07T10:43:10.602Z,100704.08
2019-04-07T10:45:46.787Z,100713.40
2019-04-07T10:48:26.156Z,100713.19
2019-04-07T10:51:18.462Z,100701.20
2019-04-07T10:54:00.450Z,100712.73
2019-04-07T10:56:34.455Z,100694.34
2019-04-07T10:59:17.515Z,100685.14
2019-04-07T11:01:56.716Z,100688.91
2019-04-07T11:04:30.615Z,100678.47
2019-04-07T11:07:04.545Z,100681.88
2019-04-07T11:09:55.276Z,100684.06
2019-04-07T11:12:45.767Z,100690.38
2019-04-07T11:15:28.030Z,100695.53
2019-04-07T11:18:16.464Z,100701.86
2019-04-07T11:20:49.759Z,100682.33
2019-04-07T11:23:29.566Z,100661.73
2019-04-07T11:26:19.089Z,100661.48
2019-04-07T11:28:55.602Z,100658.02
2019-04-07T11:31:38.540Z,100664.51
2019-04-07T11:34:20.669Z,100663.63
2019-04-07T11:36:54.481Z,100660.85
2019-04-07T11:39:37.405Z,100653.36
2019-04-07T11:42:26.259Z,100646.45
2019-04-07T11:45:16.024Z,100632.98
2019-04-07T11:47:52.545Z,100640.50
2019-04-07T11:50:28.584Z,100630.05
2019-04-07T11:53:17.624Z,100625.36
2019-04-07T11:55:51.109Z,100635.56
2019-04-07T11:58:40.888Z,100622.86
2019-04-07T12:01:29.327Z,100623.37
2019-04-07T12:04:02.567Z,100622.42
2019-04-07T12:06:46.575Z,100623.25
2019-04-07T12:09:33.754Z,100620.16
2019-04-07T12:12:07.986Z,100609.55
2019-04-07T12:14:50.085Z,100610.34
2019-04-07T12:17:25.595Z,100611.99
2019-04-07T12:20:15.169Z,100599.85
2019-04-07T12:22:49.390Z,100601.75
2019-04-07T12:25:38.508Z,100602.00
2019-04-07T12:28:14.603Z,100591.11
2019-04-07T12:30:59.946Z,100596.02
2019-04-07T12:33:48.707Z,100593.44
2019-04-07T12:36:32.178Z,100585.13
2019-04-07T12:39:16.200Z,100593.55
2019-04-07T12:41:51.382Z,100583.69
2019-04-07T12:44:31.813Z,100588.84
2019-04-07T12:47:08.066Z,100584.66
2019-04-07T12:49:45.736Z,100586.88
2019-04-07T12:52:35.521Z,100579.98
2019-04-07T12:55:11.895Z,100579.07
2019-04-07T12:57:44.681Z,100567.73
2019-04-07T13:00:52.392Z,100578.52
2019-04-07T13:03:21.137Z,100576.67
2019-04-07T13:06:00.674Z,100575.03
2019-04-07T13:08:36.758Z,100570.94
2019-04-07T13:11:13.294Z,100567.27
2019-04-07T13:14:01.642Z,100576.42
2019-04-07T13:16:33.638Z,100550.95
2019-04-07T13:19:15.789Z,100567.66
2019-04-07T13:22:05.633Z,100569.25
2019-04-07T13:24:39.300Z,100566.22
2019-04-07T13:27:23.247Z,100562.52
2019-04-07T13:30:05.873Z,100565.08
2019-04-07T13:32:55.159Z,100559.04
2019-04-07T13:35:35.162Z,100562.89
2019-04-07T13:38:09.397Z,100557.61
2019-04-07T13:40:45.727Z,100562.45
2019-04-07T13:43:18.773Z,100566.63
2019-04-07T13:46:02.451Z,100558.53
2019-04-07T13:48:49.652Z,100558.66
2019-04-07T13:51:29.077Z,100560.42
2019-04-07T13:54:03.268Z,100554.89
2019-04-07T13:56:39.711Z,100563.20
2019-04-07T13:59:28.416Z,100562.22
2019-04-07T14:02:05.324Z,100563.95
2019-04-07T14:04:39.222Z,100567.83
2019-04-07T14:07:19.771Z,100562.83
2019-04-07T14:09:53.907Z,100561.90
2019-04-07T14:12:34.575Z,100566.37
2019-04-07T14:15:11.448Z,100567.45
2019-04-07T14:17:56.896Z,100558.77
2019-04-07T14:20:33.014Z,100562.14
2019-04-07T14:23:22.523Z,100566.91
2019-04-07T14:25:58.776Z,100559.55
2019-04-07T14:28:35.710Z,100563.05
2019-04-07T14:31:09.456Z,100567.41
2019-04-07T14:33:49.162Z,100564.69
2019-04-07T14:36:31.566Z,100564.48
2019-04-07T14:39:10.685Z,100563.00
2019-04-07T14:41:47.327Z,100557.77
2019-04-07T14:44:21.431Z,100566.81
2019-04-07T14:46:57.665Z,100564.86
2019-04-07T14:49:33.868Z,100530.02
2019-04-07T14:52:24.303Z,100559.58
2019-04-07T14:55:00.012Z,100553.22
2019-04-07T14:57:43.678Z,100559.86
2019-04-07T15:00:20.448Z,100556.98
2019-04-07T15:02:52.946Z,100561.94
2019-04-07T15:05:32.655Z,100560.73
2019-04-07T15:08:17.293Z,100563.19
2019-04-07T15:10:51.640Z,100563.70
2019-04-07T15:13:27.936Z,100569.22
2019-04-07T15:15:58.552Z,100563.83
2019-04-07T15:18:30.190Z,100566.98
2019-04-07T15:21:02.346Z,100566.81
2019-04-07T15:23:34.419Z,100566.16
2019-04-07T15:26:06.473Z,100568.48
2019-04-07T15:28:38.429Z,100568.19
2019-04-07T15:31:10.254Z,100576.31
2019-04-07T15:33:42.408Z,100566.63
2019-04-07T15:36:17.537Z,100573.31
2019-04-07T15:38:47.801Z,100569.42
2019-04-07T15:41:22.199Z,100573.31
2019-04-07T15:43:55.219Z,100566.88
2019-04-07T15:46:27.327Z,100568.05
2019-04-07T15:48:59.435Z,100572.90
2019-04-07T15:51:34.388Z,100567.50
2019-04-07T15:54:06.219Z,100564.56
2019-04-07T15:56:38.314Z,100571.98
2019-04-07T15:59:10.076Z,100574.72
2019-04-07T16:01:41.900Z,100568.94
2019-04-07T16:04:13.976Z,100573.53
2019-04-07T16:06:48.116Z,100571.50
2019-04-07T16:09:33.375Z,100574.23
2019-04-07T16:11:53.328Z,100576.66
2019-04-07T16:14:25.262Z,100578.14
2019-04-07T16:16:59.616Z,100577.20
2019-04-07T16:19:38.204Z,100581.06
2019-04-07T16:22:04.516Z,100587.84
2019-04-07T16:24:36.148Z,100591.41
2019-04-07T16:27:08.952Z,100596.61
2019-04-07T16:29:41.303Z,100585.09
2019-04-07T16:32:13.536Z,100590.28
2019-04-07T16:34:46.259Z,100598.62
2019-04-07T16:37:18.188Z,100599.55
2019-04-07T16:39:50.239Z,100598.39
2019-04-07T16:42:22.038Z,100597.89
2019-04-07T16:44:54.848Z,100597.88
2019-04-07T16:47:32.768Z,100602.73
2019-04-07T16:50:00.010Z,100602.22
2019-04-07T16:52:33.979Z,100609.98
2019-04-07T16:55:09.258Z,100606.73
2019-04-07T16:57:41.133Z,100598.48
2019-04-07T17:00:16.391Z,100581.22
2019-04-07T17:02:48.218Z,100608.25
2019-04-07T17:05:22.001Z,100605.41
2019-04-07T17:07:56.547Z,100611.45
2019-04-07T17:10:30.949Z,100617.48
2019-04-07T17:13:05.327Z,100612.80
2019-04-07T17:15:38.199Z,100618.11
2019-04-07T17:18:10.627Z,100616.86
2019-04-07T17:20:42.380Z,100614.91
2019-04-07T17:23:14.256Z,100615.27
2019-04-07T17:25:45.990Z,100621.31
2019-04-07T17:28:18.365Z,100621.38
2019-04-07T17:30:49.638Z,100617.60
2019-04-07T17:33:23.219Z,100620.44
2019-04-07T17:35:55.384Z,100618.56
2019-04-07T17:38:29.144Z,100621.80
2019-04-07T17:41:01.017Z,100619.30
2019-04-07T17:43:52.819Z,100623.97
2019-04-07T17:46:38.344Z,100621.59
2019-04-07T17:49:14.726Z,100625.54
2019-04-07T17:51:54.044Z,100621.88
2019-04-07T17:54:34.435Z,100625.06
2019-04-07T17:57:16.881Z,100622.11
2019-04-07T18:00:05.864Z,100624.77
2019-04-07T18:02:54.016Z,100629.59
2019-04-07T18:05:36.595Z,100630.55
2019-04-07T18:08:16.463Z,100631.20
2019-04-07T18:11:05.051Z,100627.23
2019-04-07T18:13:57.672Z,100631.22
2019-04-07T18:16:46.448Z,100633.67
2019-04-07T18:19:19.788Z,100636.31
2019-04-07T18:21:59.749Z,100634.58
2019-04-07T18:24:48.741Z,100632.27
2019-04-07T18:27:23.231Z,100628.40
2019-04-07T18:30:03.437Z,100627.65
2019-04-07T18:32:51.758Z,100626.49
2019-04-07T18:35:40.919Z,100627.84
2019-04-07T18:38:29.778Z,100627.84
2019-04-07T18:41:13.111Z,100624.05
2019-04-07T18:44:04.636Z,100628.98
2019-04-07T18:46:34.606Z,100623.86
2019-04-07T18:49:08.301Z,100623.44
2019-04-07T18:51:49.008Z,100621.59
2019-04-07T18:54:38.834Z,100624.53
2019-04-07T18:57:12.749Z,100617.34
2019-04-07T19:00:04.286Z,100622.03
2019-04-07T19:02:38.355Z,100616.34
2019-04-07T19:05:15.279Z,100613.83
2019-04-07T19:07:51.760Z,100617.63
2019-04-07T19:10:28.017Z,100604.23
2019-04-07T19:13:12.768Z,100612.71
2019-04-07T19:15:51.935Z,100610.08
2019-04-07T19:18:45.262Z,100614.85
2019-04-07T19:21:20.434Z,100610.16
2019-04-07T19:23:59.130Z,100614.14
2019-04-07T19:26:41.080Z,100613.12
2019-04-07T19:29:19.597Z,100604.84
2019-04-07T19:31:52.522Z,100610.09
2019-04-07T19:34:32.788Z,100605.59
2019-04-07T19:37:20.157Z,100611.23
2019-04-07T19:40:08.579Z,100578.64
2019-04-07T19:42:49.546Z,100610.26
2019-04-07T19:45:25.412Z,100612.88
2019-04-07T19:48:01.930Z,100614.39
2019-04-07T19:51:03.193Z,100616.31
2019-04-07T19:53:43.261Z,100612.45
2019-04-07T19:56:23.793Z,100617.94
2019-04-07T19:58:59.911Z,100616.37
2019-04-07T20:01:33.649Z,100618.98
2019-04-07T20:04:25.906Z,100618.58
2019-04-07T20:07:17.933Z,100615.95
2019-04-07T20:10:06.701Z,100619.56
2019-04-07T20:12:44.046Z,100618.81
2019-04-07T20:15:31.013Z,100614.98
2019-04-07T20:18:05.548Z,100610.55
2019-04-07T20:20:48.521Z,100615.16
2019-04-07T20:23:22.917Z,100619.84
2019-04-07T20:25:57.370Z,100618.58
2019-04-07T20:28:32.975Z,100623.66
2019-04-07T20:31:12.684Z,100619.81
2019-04-07T20:33:49.086Z,100621.44
2019-04-07T20:36:24.622Z,100618.74
2019-04-07T20:39:03.966Z,100615.23
2019-04-07T20:41:56.765Z,100614.23
2019-04-07T20:44:35.233Z,100613.84
2019-04-07T20:47:26.444Z,100614.83
2019-04-07T20:50:11.911Z,100608.44
2019-04-07T20:53:10.126Z,100606.64
2019-04-07T20:55:50.733Z,100604.11
2019-04-07T20:58:43.669Z,100603.12
2019-04-07T21:01:10.045Z,100604.13
2019-04-07T21:03:51.632Z,100608.80
2019-04-07T21:06:42.627Z,100599.09
2019-04-07T21:09:34.554Z,100599.41
2019-04-07T21:12:12.774Z,100598.11
2019-04-07T21:15:16.182Z,100598.73
2019-04-07T21:17:38.597Z,100594.73
2019-04-07T21:20:13.130Z,100588.36
2019-04-07T21:22:58.415Z,100601.41
2019-04-07T21:25:46.995Z,100596.11
2019-04-07T21:28:29.403Z,100598.52
2019-04-07T21:31:21.438Z,100590.38
2019-04-07T21:33:55.801Z,100587.47
2019-04-07T21:36:32.819Z,100596.30
2019-04-07T21:39:21.729Z,100597.38
2019-04-07T21:41:54.885Z,100594.77
2019-04-07T21:44:29.305Z,100584.98
2019-04-07T21:47:19.128Z,100589.59
2019-04-07T21:50:05.447Z,100588.31
2019-04-07T21:52:52.935Z,100567.52
2019-04-07T21:55:41.955Z,100594.25
2019-04-07T21:58:31.551Z,100592.43
2019-04-07T22:01:21.057Z,100595.47
2019-04-07T22:03:54.630Z,100594.81
2019-04-07T22:06:29.802Z,100583.88
2019-04-07T22:09:03.202Z,100584.66
2019-04-07T22:11:36.747Z,100586.57
2019-04-07T22:14:08.617Z,100587.36
2019-04-07T22:16:41.004Z,100583.36
2019-04-07T22:19:14.926Z,100582.95
2019-04-07T22:21:48.066Z,100587.08
2019-04-07T22:24:20.745Z,100590.28
2019-04-07T22:26:53.326Z,100535.17
2019-04-07T22:29:25.423Z,100588.11
2019-04-07T22:31:58.581Z,100592.67
2019-04-07T22:34:32.684Z,100595.60
2019-04-07T22:37:03.592Z,100594.64
2019-04-07T22:39:35.733Z,100592.31
2019-04-07T22:42:08.495Z,100592.66
2019-04-07T22:44:40.363Z,100590.65
2019-04-07T22:47:14.430Z,100587.10
2019-04-07T22:49:46.106Z,100580.18
2019-04-07T22:52:18.952Z,100580.72
2019-04-07T22:54:50.668Z,100581.55
2019-04-07T22:57:22.627Z,100580.53
2019-04-07T22:59:54.585Z,100572.33
2019-04-07T23:02:26.353Z,100570.31
2019-04-07T23:04:58.761Z,100580.85
2019-04-07T23:07:30.622Z,100566.43
2019-04-07T23:10:02.781Z,100570.27
2019-04-07T23:12:36.085Z,100570.73
2019-04-07T23:15:07.991Z,100567.55
2019-04-07T23:17:40.304Z,100571.28
2019-04-07T23:20:13.072Z,100575.33
2019-04-07T23:22:45.179Z,100572.81
2019-04-07T23:25:17.581Z,100572.81
2019-04-07T23:27:50.020Z,100572.83
2019-04-07T23:30:23.656Z,100572.34
2019-04-07T23:32:55.724Z,100576.21
2019-04-07T23:35:27.387Z,100538.11
2019-04-07T23:38:00.373Z,100577.22
2019-04-07T23:40:32.243Z,100563.47
2019-04-07T23:43:04.779Z,100562.28
2019-04-07T23:45:36.364Z,100563.31
2019-04-07T23:48:08.420Z,100562.61
2019-04-07T23:50:41.158Z,100559.09
2019-04-07T23:53:49.140Z,100558.95
2019-04-07T23:56:20.766Z,100556.95
2019-04-07T23:58:52.536Z,100558.12
